sensor_id;sensor_type;location;lat;lon;timestamp;temperature;humidity
41142;SHT31;63666;52.284;20.890;2023-03-01T00:02:23;19.92;34.61
41142;SHT31;63666;52.284;20.890;2023-03-01T00:04:57;19.93;34.58
41142;SHT31;63666;52.284;20.890;2023-03-01T00:07:30;19.89;34.54
41142;SHT31;63666;52.284;20.890;2023-03-01T00:10:03;19.89;34.49
41142;SHT31;63666;52.284;20.890;2023-03-01T00:12:35;19.90;34.44
41142;SHT31;63666;52.284;20.890;2023-03-01T00:15:08;19.89;34.41
41142;SHT31;63666;52.284;20.890;2023-03-01T00:17:40;19.89;34.30
41142;SHT31;63666;52.284;20.890;2023-03-01T00:20:13;19.84;34.36
41142;SHT31;63666;52.284;20.890;2023-03-01T00:22:44;19.84;34.27
41142;SHT31;63666;52.284;20.890;2023-03-01T00:25:14;19.85;34.26
41142;SHT31;63666;52.284;20.890;2023-03-01T00:27:46;19.86;34.15
41142;SHT31;63666;52.284;20.890;2023-03-01T00:30:19;19.81;34.20
41142;SHT31;63666;52.284;20.890;2023-03-01T00:32:50;19.78;34.16
41142;SHT31;63666;52.284;20.890;2023-03-01T00:35:22;19.74;34.18
41142;SHT31;63666;52.284;20.890;2023-03-01T00:37:55;19.70;34.24
41142;SHT31;63666;52.284;20.890;2023-03-01T00:40:30;19.70;34.15
41142;SHT31;63666;52.284;20.890;2023-03-01T00:43:03;19.68;34.14
41142;SHT31;63666;52.284;20.890;2023-03-01T00:45:36;19.68;34.08
41142;SHT31;63666;52.284;20.890;2023-03-01T00:48:06;19.66;34.07
41142;SHT31;63666;52.284;20.890;2023-03-01T00:50:40;19.61;34.17
41142;SHT31;63666;52.284;20.890;2023-03-01T00:53:10;19.56;34.23
41142;SHT31;63666;52.284;20.890;2023-03-01T00:55:40;19.58;34.18
41142;SHT31;63666;52.284;20.890;2023-03-01T00:58:16;19.60;34.10
41142;SHT31;63666;52.284;20.890;2023-03-01T01:00:48;19.58;34.20
41142;SHT31;63666;52.284;20.890;2023-03-01T01:03:19;19.55;34.22
41142;SHT31;63666;52.284;20.890;2023-03-01T01:05:52;19.53;34.21
41142;SHT31;63666;52.284;20.890;2023-03-01T01:08:24;19.54;34.19
41142;SHT31;63666;52.284;20.890;2023-03-01T01:10:57;19.52;34.15
41142;SHT31;63666;52.284;20.890;2023-03-01T01:13:27;19.50;34.25
41142;SHT31;63666;52.284;20.890;2023-03-01T01:16:01;19.51;34.26
41142;SHT31;63666;52.284;20.890;2023-03-01T01:18:32;19.50;34.27
41142;SHT31;63666;52.284;20.890;2023-03-01T01:21:08;19.50;34.29
41142;SHT31;63666;52.284;20.890;2023-03-01T01:23:42;19.50;34.30
41142;SHT31;63666;52.284;20.890;2023-03-01T01:26:14;19.47;34.30
41142;SHT31;63666;52.284;20.890;2023-03-01T01:28:47;19.45;34.31
41142;SHT31;63666;52.284;20.890;2023-03-01T01:31:17;19.45;34.32
41142;SHT31;63666;52.284;20.890;2023-03-01T01:33:51;19.42;34.37
41142;SHT31;63666;52.284;20.890;2023-03-01T01:36:22;19.41;34.32
41142;SHT31;63666;52.284;20.890;2023-03-01T01:38:56;19.42;34.35
41142;SHT31;63666;52.284;20.890;2023-03-01T01:41:27;19.41;34.32
41142;SHT31;63666;52.284;20.890;2023-03-01T01:44:11;19.40;34.33
41142;SHT31;63666;52.284;20.890;2023-03-01T01:46:49;19.41;34.33
41142;SHT31;63666;52.284;20.890;2023-03-01T01:49:25;19.37;34.37
41142;SHT31;63666;52.284;20.890;2023-03-01T01:52:03;19.39;34.32
41142;SHT31;63666;52.284;20.890;2023-03-01T01:54:39;19.39;34.30
41142;SHT31;63666;52.284;20.890;2023-03-01T01:57:18;19.37;34.30
41142;SHT31;63666;52.284;20.890;2023-03-01T01:59:52;19.38;34.35
41142;SHT31;63666;52.284;20.890;2023-03-01T02:02:25;19.43;34.52
41142;SHT31;63666;52.284;20.890;2023-03-01T02:04:58;19.39;34.55
41142;SHT31;63666;52.284;20.890;2023-03-01T02:07:38;19.39;34.62
41142;SHT31;63666;52.284;20.890;2023-03-01T02:10:15;19.37;34.69
41142;SHT31;63666;52.284;20.890;2023-03-01T02:12:48;19.38;34.69
41142;SHT31;63666;52.284;20.890;2023-03-01T02:15:22;19.37;34.69
41142;SHT31;63666;52.284;20.890;2023-03-01T02:17:57;19.35;34.73
41142;SHT31;63666;52.284;20.890;2023-03-01T02:20:31;19.33;34.76
41142;SHT31;63666;52.284;20.890;2023-03-01T02:23:13;19.31;34.77
41142;SHT31;63666;52.284;20.890;2023-03-01T02:25:46;19.33;34.75
41142;SHT31;63666;52.284;20.890;2023-03-01T02:28:27;19.36;34.68
41142;SHT31;63666;52.284;20.890;2023-03-01T02:31:03;19.34;34.67
41142;SHT31;63666;52.284;20.890;2023-03-01T02:33:54;19.30;34.71
41142;SHT31;63666;52.284;20.890;2023-03-01T02:36:30;19.30;34.67
41142;SHT31;63666;52.284;20.890;2023-03-01T02:39:07;19.29;34.70
41142;SHT31;63666;52.284;20.890;2023-03-01T02:41:48;19.27;34.68
41142;SHT31;63666;52.284;20.890;2023-03-01T02:44:22;19.30;34.63
41142;SHT31;63666;52.284;20.890;2023-03-01T02:46:56;19.28;34.62
41142;SHT31;63666;52.284;20.890;2023-03-01T02:49:31;19.26;34.63
41142;SHT31;63666;52.284;20.890;2023-03-01T02:55:12;19.25;34.63
41142;SHT31;63666;52.284;20.890;2023-03-01T02:57:50;19.25;34.62
41142;SHT31;63666;52.284;20.890;2023-03-01T03:00:21;19.24;34.62
41142;SHT31;63666;52.284;20.890;2023-03-01T03:02:56;19.22;34.64
41142;SHT31;63666;52.284;20.890;2023-03-01T03:05:27;19.21;34.60
41142;SHT31;63666;52.284;20.890;2023-03-01T03:07:59;19.19;34.61
41142;SHT31;63666;52.284;20.890;2023-03-01T03:10:36;19.18;34.60
41142;SHT31;63666;52.284;20.890;2023-03-01T03:13:10;19.17;34.60
41142;SHT31;63666;52.284;20.890;2023-03-01T03:15:42;19.17;34.58
41142;SHT31;63666;52.284;20.890;2023-03-01T03:18:14;19.17;34.56
41142;SHT31;63666;52.284;20.890;2023-03-01T03:20:46;19.15;34.55
41142;SHT31;63666;52.284;20.890;2023-03-01T03:23:20;19.13;34.56
41142;SHT31;63666;52.284;20.890;2023-03-01T03:25:53;19.16;34.49
41142;SHT31;63666;52.284;20.890;2023-03-01T03:28:24;19.12;34.52
41142;SHT31;63666;52.284;20.890;2023-03-01T03:30:55;19.12;34.50
41142;SHT31;63666;52.284;20.890;2023-03-01T03:33:28;19.13;34.48
41142;SHT31;63666;52.284;20.890;2023-03-01T03:35:58;19.12;34.45
41142;SHT31;63666;52.284;20.890;2023-03-01T03:38:31;19.11;34.46
41142;SHT31;63666;52.284;20.890;2023-03-01T03:41:07;19.12;34.46
41142;SHT31;63666;52.284;20.890;2023-03-01T03:43:42;19.11;34.43
41142;SHT31;63666;52.284;20.890;2023-03-01T03:46:15;19.11;34.41
41142;SHT31;63666;52.284;20.890;2023-03-01T03:48:46;19.10;34.41
41142;SHT31;63666;52.284;20.890;2023-03-01T03:51:17;19.10;34.39
41142;SHT31;63666;52.284;20.890;2023-03-01T03:53:50;19.09;34.41
41142;SHT31;63666;52.284;20.890;2023-03-01T03:56:20;19.07;34.44
41142;SHT31;63666;52.284;20.890;2023-03-01T03:58:55;19.04;34.50
41142;SHT31;63666;52.284;20.890;2023-03-01T04:01:28;19.03;34.50
41142;SHT31;63666;52.284;20.890;2023-03-01T04:03:58;19.04;34.44
41142;SHT31;63666;52.284;20.890;2023-03-01T04:06:32;19.06;34.37
41142;SHT31;63666;52.284;20.890;2023-03-01T04:09:08;19.05;34.39
41142;SHT31;63666;52.284;20.890;2023-03-01T04:11:38;19.03;34.40
41142;SHT31;63666;52.284;20.890;2023-03-01T04:14:09;19.02;34.41
41142;SHT31;63666;52.284;20.890;2023-03-01T04:16:40;18.99;34.44
41142;SHT31;63666;52.284;20.890;2023-03-01T04:19:10;18.99;34.41
41142;SHT31;63666;52.284;20.890;2023-03-01T04:21:46;19.01;34.39
41142;SHT31;63666;52.284;20.890;2023-03-01T04:24:19;19.00;34.40
41142;SHT31;63666;52.284;20.890;2023-03-01T04:26:52;18.99;34.40
41142;SHT31;63666;52.284;20.890;2023-03-01T04:29:24;18.99;34.38
41142;SHT31;63666;52.284;20.890;2023-03-01T04:32:00;18.96;34.39
41142;SHT31;63666;52.284;20.890;2023-03-01T04:34:33;18.97;34.34
41142;SHT31;63666;52.284;20.890;2023-03-01T04:37:04;18.95;34.44
41142;SHT31;63666;52.284;20.890;2023-03-01T04:39:40;18.95;34.70
41142;SHT31;63666;52.284;20.890;2023-03-01T04:42:13;18.97;34.93
41142;SHT31;63666;52.284;20.890;2023-03-01T04:44:44;18.97;35.09
41142;SHT31;63666;52.284;20.890;2023-03-01T04:47:15;18.97;35.17
41142;SHT31;63666;52.284;20.890;2023-03-01T04:49:48;18.95;35.11
41142;SHT31;63666;52.284;20.890;2023-03-01T04:52:19;18.94;35.13
41142;SHT31;63666;52.284;20.890;2023-03-01T04:54:49;18.92;35.12
41142;SHT31;63666;52.284;20.890;2023-03-01T04:57:19;18.96;35.15
41142;SHT31;63666;52.284;20.890;2023-03-01T04:59:52;19.01;35.09
41142;SHT31;63666;52.284;20.890;2023-03-01T05:02:23;19.09;35.05
41142;SHT31;63666;52.284;20.890;2023-03-01T05:04:55;19.15;34.91
41142;SHT31;63666;52.284;20.890;2023-03-01T05:07:28;19.22;34.81
41142;SHT31;63666;52.284;20.890;2023-03-01T05:10:01;19.29;34.78
41142;SHT31;63666;52.284;20.890;2023-03-01T05:12:36;19.34;34.68
41142;SHT31;63666;52.284;20.890;2023-03-01T05:15:10;19.41;34.56
41142;SHT31;63666;52.284;20.890;2023-03-01T05:17:40;19.45;34.50
41142;SHT31;63666;52.284;20.890;2023-03-01T05:20:11;19.49;34.40
41142;SHT31;63666;52.284;20.890;2023-03-01T05:22:47;19.56;34.28
41142;SHT31;63666;52.284;20.890;2023-03-01T05:25:21;19.60;34.23
41142;SHT31;63666;52.284;20.890;2023-03-01T05:27:51;19.64;34.17
41142;SHT31;63666;52.284;20.890;2023-03-01T05:30:23;19.67;34.14
41142;SHT31;63666;52.284;20.890;2023-03-01T05:32:54;19.71;34.08
41142;SHT31;63666;52.284;20.890;2023-03-01T05:35:25;19.73;34.05
41142;SHT31;63666;52.284;20.890;2023-03-01T05:37:59;19.77;34.00
41142;SHT31;63666;52.284;20.890;2023-03-01T05:40:34;19.81;33.94
41142;SHT31;63666;52.284;20.890;2023-03-01T05:43:07;19.83;33.91
41142;SHT31;63666;52.284;20.890;2023-03-01T05:45:40;19.87;33.82
41142;SHT31;63666;52.284;20.890;2023-03-01T05:48:11;19.90;33.80
41142;SHT31;63666;52.284;20.890;2023-03-01T05:50:42;19.93;33.75
41142;SHT31;63666;52.284;20.890;2023-03-01T05:53:15;19.96;33.70
41142;SHT31;63666;52.284;20.890;2023-03-01T05:55:48;19.98;33.68
41142;SHT31;63666;52.284;20.890;2023-03-01T05:58:19;20.01;33.61
41142;SHT31;63666;52.284;20.890;2023-03-01T06:00:50;20.03;33.56
41142;SHT31;63666;52.284;20.890;2023-03-01T06:03:22;20.07;33.48
41142;SHT31;63666;52.284;20.890;2023-03-01T06:05:56;20.09;33.45
41142;SHT31;63666;52.284;20.890;2023-03-01T06:08:27;20.13;33.40
41142;SHT31;63666;52.284;20.890;2023-03-01T06:10:57;20.15;33.35
41142;SHT31;63666;52.284;20.890;2023-03-01T06:13:30;20.18;33.27
41142;SHT31;63666;52.284;20.890;2023-03-01T06:16:03;20.24;33.20
41142;SHT31;63666;52.284;20.890;2023-03-01T06:18:35;20.25;33.14
41142;SHT31;63666;52.284;20.890;2023-03-01T06:21:06;20.28;33.10
41142;SHT31;63666;52.284;20.890;2023-03-01T06:23:37;20.30;33.02
41142;SHT31;63666;52.284;20.890;2023-03-01T06:26:09;20.34;32.97
41142;SHT31;63666;52.284;20.890;2023-03-01T06:28:41;20.38;32.88
41142;SHT31;63666;52.284;20.890;2023-03-01T06:31:14;20.39;32.81
41142;SHT31;63666;52.284;20.890;2023-03-01T06:33:45;20.41;32.77
41142;SHT31;63666;52.284;20.890;2023-03-01T06:36:16;20.45;32.72
41142;SHT31;63666;52.284;20.890;2023-03-01T06:38:54;20.48;32.67
41142;SHT31;63666;52.284;20.890;2023-03-01T06:41:25;20.50;32.64
41142;SHT31;63666;52.284;20.890;2023-03-01T06:43:56;20.53;32.67
41142;SHT31;63666;52.284;20.890;2023-03-01T06:46:27;20.56;32.68
41142;SHT31;63666;52.284;20.890;2023-03-01T06:49:01;20.57;32.71
41142;SHT31;63666;52.284;20.890;2023-03-01T06:51:36;20.61;32.73
41142;SHT31;63666;52.284;20.890;2023-03-01T06:54:10;20.64;32.72
41142;SHT31;63666;52.284;20.890;2023-03-01T06:56:46;20.65;32.74
41142;SHT31;63666;52.284;20.890;2023-03-01T06:59:18;20.66;32.80
41142;SHT31;63666;52.284;20.890;2023-03-01T07:01:48;20.68;32.80
41142;SHT31;63666;52.284;20.890;2023-03-01T07:04:23;20.68;32.77
41142;SHT31;63666;52.284;20.890;2023-03-01T07:06:56;20.70;32.73
41142;SHT31;63666;52.284;20.890;2023-03-01T07:09:29;20.69;32.70
41142;SHT31;63666;52.284;20.890;2023-03-01T07:12:05;20.71;32.65
41142;SHT31;63666;52.284;20.890;2023-03-01T07:14:37;20.74;32.62
41142;SHT31;63666;52.284;20.890;2023-03-01T07:17:10;20.78;32.57
41142;SHT31;63666;52.284;20.890;2023-03-01T07:19:40;20.79;32.54
41142;SHT31;63666;52.284;20.890;2023-03-01T07:22:14;20.81;32.51
41142;SHT31;63666;52.284;20.890;2023-03-01T07:24:47;20.83;32.49
41142;SHT31;63666;52.284;20.890;2023-03-01T07:27:22;20.85;32.42
41142;SHT31;63666;52.284;20.890;2023-03-01T07:29:56;20.89;32.35
41142;SHT31;63666;52.284;20.890;2023-03-01T07:32:31;20.92;32.30
41142;SHT31;63666;52.284;20.890;2023-03-01T07:35:05;20.98;33.06
41142;SHT31;63666;52.284;20.890;2023-03-01T07:37:43;21.12;35.82
41142;SHT31;63666;52.284;20.890;2023-03-01T07:40:15;21.19;36.04
41142;SHT31;63666;52.284;20.890;2023-03-01T07:42:49;21.24;36.00
41142;SHT31;63666;52.284;20.890;2023-03-01T07:45:28;21.34;36.42
41142;SHT31;63666;52.284;20.890;2023-03-01T07:47:58;21.38;36.72
41142;SHT31;63666;52.284;20.890;2023-03-01T07:50:29;21.38;36.47
41142;SHT31;63666;52.284;20.890;2023-03-01T07:53:03;21.38;36.15
41142;SHT31;63666;52.284;20.890;2023-03-01T07:55:39;21.48;36.40
41142;SHT31;63666;52.284;20.890;2023-03-01T07:58:11;21.60;35.86
41142;SHT31;63666;52.284;20.890;2023-03-01T08:00:41;21.57;33.49
41142;SHT31;63666;52.284;20.890;2023-03-01T08:03:14;21.55;33.23
41142;SHT31;63666;52.284;20.890;2023-03-01T08:05:46;21.52;33.10
41142;SHT31;63666;52.284;20.890;2023-03-01T08:08:19;21.54;34.03
41142;SHT31;63666;52.284;20.890;2023-03-01T08:11:00;21.75;37.14
41142;SHT31;63666;52.284;20.890;2023-03-01T08:13:32;21.88;37.35
41142;SHT31;63666;52.284;20.890;2023-03-01T08:16:07;21.97;36.75
41142;SHT31;63666;52.284;20.890;2023-03-01T08:18:40;22.09;34.27
41142;SHT31;63666;52.284;20.890;2023-03-01T08:21:11;22.16;33.89
41142;SHT31;63666;52.284;20.890;2023-03-01T08:23:44;22.19;33.49
41142;SHT31;63666;52.284;20.890;2023-03-01T08:26:20;22.23;33.49
41142;SHT31;63666;52.284;20.890;2023-03-01T08:28:51;22.29;33.57
41142;SHT31;63666;52.284;20.890;2023-03-01T08:31:31;22.32;32.93
41142;SHT31;63666;52.284;20.890;2023-03-01T08:34:12;22.33;33.73
41142;SHT31;63666;52.284;20.890;2023-03-01T08:36:46;22.35;33.58
41142;SHT31;63666;52.284;20.890;2023-03-01T08:39:20;22.18;33.35
41142;SHT31;63666;52.284;20.890;2023-03-01T08:41:54;22.37;34.34
41142;SHT31;63666;52.284;20.890;2023-03-01T08:44:28;22.13;33.45
41142;SHT31;63666;52.284;20.890;2023-03-01T08:46:58;21.61;32.84
41142;SHT31;63666;52.284;20.890;2023-03-01T08:49:29;20.46;33.97
41142;SHT31;63666;52.284;20.890;2023-03-01T08:52:03;21.38;34.15
41142;SHT31;63666;52.284;20.890;2023-03-01T08:54:33;21.74;33.04
41142;SHT31;63666;52.284;20.890;2023-03-01T08:57:05;20.89;33.34
41142;SHT31;63666;52.284;20.890;2023-03-01T08:59:39;19.84;34.47
41142;SHT31;63666;52.284;20.890;2023-03-01T09:02:11;20.45;34.59
41142;SHT31;63666;52.284;20.890;2023-03-01T09:04:49;21.14;33.59
41142;SHT31;63666;52.284;20.890;2023-03-01T09:07:21;20.46;33.37
41142;SHT31;63666;52.284;20.890;2023-03-01T09:09:56;20.79;34.00
41142;SHT31;63666;52.284;20.890;2023-03-01T09:12:32;21.90;33.60
41142;SHT31;63666;52.284;20.890;2023-03-01T09:15:04;22.14;33.53
41142;SHT31;63666;52.284;20.890;2023-03-01T09:17:41;22.33;31.94
41142;SHT31;63666;52.284;20.890;2023-03-01T09:20:12;22.36;31.97
41142;SHT31;63666;52.284;20.890;2023-03-01T09:22:45;22.44;31.85
41142;SHT31;63666;52.284;20.890;2023-03-01T09:25:22;22.52;31.44
41142;SHT31;63666;52.284;20.890;2023-03-01T09:27:58;22.55;31.61
41142;SHT31;63666;52.284;20.890;2023-03-01T09:30:30;22.55;31.43
41142;SHT31;63666;52.284;20.890;2023-03-01T09:33:02;22.58;31.38
41142;SHT31;63666;52.284;20.890;2023-03-01T09:35:32;22.58;31.32
41142;SHT31;63666;52.284;20.890;2023-03-01T09:38:15;22.62;31.30
41142;SHT31;63666;52.284;20.890;2023-03-01T09:40:48;22.65;31.23
41142;SHT31;63666;52.284;20.890;2023-03-01T09:43:21;22.67;31.30
41142;SHT31;63666;52.284;20.890;2023-03-01T09:46:00;22.52;31.39
41142;SHT31;63666;52.284;20.890;2023-03-01T09:48:38;22.41;31.51
41142;SHT31;63666;52.284;20.890;2023-03-01T09:51:14;22.34;31.58
41142;SHT31;63666;52.284;20.890;2023-03-01T09:54:00;22.29;31.60
41142;SHT31;63666;52.284;20.890;2023-03-01T09:56:34;22.33;31.54
41142;SHT31;63666;52.284;20.890;2023-03-01T09:59:16;22.38;31.34
41142;SHT31;63666;52.284;20.890;2023-03-01T10:01:56;22.41;31.31
41142;SHT31;63666;52.284;20.890;2023-03-01T10:04:46;22.41;31.25
41142;SHT31;63666;52.284;20.890;2023-03-01T10:07:23;22.42;31.19
41142;SHT31;63666;52.284;20.890;2023-03-01T10:10:16;22.40;31.26
41142;SHT31;63666;52.284;20.890;2023-03-01T10:12:58;22.30;31.41
41142;SHT31;63666;52.284;20.890;2023-03-01T10:15:35;22.33;31.33
41142;SHT31;63666;52.284;20.890;2023-03-01T10:18:16;22.41;31.23
41142;SHT31;63666;52.284;20.890;2023-03-01T10:20:53;22.44;31.13
41142;SHT31;63666;52.284;20.890;2023-03-01T10:23:34;22.53;31.92
41142;SHT31;63666;52.284;20.890;2023-03-01T10:29:03;22.71;31.09
41142;SHT31;63666;52.284;20.890;2023-03-01T10:31:40;22.68;30.69
41142;SHT31;63666;52.284;20.890;2023-03-01T10:34:18;22.68;30.80
41142;SHT31;63666;52.284;20.890;2023-03-01T10:36:56;22.77;30.85
41142;SHT31;63666;52.284;20.890;2023-03-01T10:39:54;22.85;31.29
41142;SHT31;63666;52.284;20.890;2023-03-01T10:42:27;22.94;31.24
41142;SHT31;63666;52.284;20.890;2023-03-01T10:45:14;22.96;30.69
41142;SHT31;63666;52.284;20.890;2023-03-01T10:48:04;22.95;30.56
41142;SHT31;63666;52.284;20.890;2023-03-01T10:50:41;22.98;30.58
41142;SHT31;63666;52.284;20.890;2023-03-01T10:53:22;23.01;30.52
41142;SHT31;63666;52.284;20.890;2023-03-01T10:55:57;22.99;30.50
41142;SHT31;63666;52.284;20.890;2023-03-01T10:58:56;22.99;30.83
41142;SHT31;63666;52.284;20.890;2023-03-01T11:01:30;23.07;30.92
41142;SHT31;63666;52.284;20.890;2023-03-01T11:04:12;23.03;30.47
41142;SHT31;63666;52.284;20.890;2023-03-01T11:06:44;23.03;30.48
41142;SHT31;63666;52.284;20.890;2023-03-01T11:09:31;23.00;30.48
41142;SHT31;63666;52.284;20.890;2023-03-01T11:12:12;23.03;30.48
41142;SHT31;63666;52.284;20.890;2023-03-01T11:14:47;23.03;30.36
41142;SHT31;63666;52.284;20.890;2023-03-01T11:17:23;23.03;30.40
41142;SHT31;63666;52.284;20.890;2023-03-01T11:20:01;23.12;30.43
41142;SHT31;63666;52.284;20.890;2023-03-01T11:22:43;23.09;30.62
41142;SHT31;63666;52.284;20.890;2023-03-01T11:25:17;23.16;30.38
41142;SHT31;63666;52.284;20.890;2023-03-01T11:27:54;23.24;30.39
41142;SHT31;63666;52.284;20.890;2023-03-01T11:30:32;23.24;30.32
41142;SHT31;63666;52.284;20.890;2023-03-01T11:33:11;23.20;30.26
41142;SHT31;63666;52.284;20.890;2023-03-01T11:35:49;23.16;30.25
41142;SHT31;63666;52.284;20.890;2023-03-01T11:38:29;23.12;30.25
41142;SHT31;63666;52.284;20.890;2023-03-01T11:41:06;23.10;30.54
41142;SHT31;63666;52.284;20.890;2023-03-01T11:43:49;23.15;30.25
41142;SHT31;63666;52.284;20.890;2023-03-01T11:49:49;23.00;30.53
41142;SHT31;63666;52.284;20.890;2023-03-01T11:52:38;23.02;30.75
41142;SHT31;63666;52.284;20.890;2023-03-01T11:55:33;22.95;30.87
41142;SHT31;63666;52.284;20.890;2023-03-01T11:58:23;22.88;30.73
41142;SHT31;63666;52.284;20.890;2023-03-01T12:01:17;22.87;31.14
41142;SHT31;63666;52.284;20.890;2023-03-01T12:04:12;23.05;30.95
41142;SHT31;63666;52.284;20.890;2023-03-01T12:07:32;23.00;30.53
41142;SHT31;63666;52.284;20.890;2023-03-01T12:10:18;22.98;30.60
41142;SHT31;63666;52.284;20.890;2023-03-01T12:16:13;23.08;30.51
41142;SHT31;63666;52.284;20.890;2023-03-01T12:19:13;23.09;30.48
41142;SHT31;63666;52.284;20.890;2023-03-01T12:25:10;23.11;30.42
41142;SHT31;63666;52.284;20.890;2023-03-01T12:28:07;23.15;30.39
41142;SHT31;63666;52.284;20.890;2023-03-01T12:34:46;23.15;30.39
41142;SHT31;63666;52.284;20.890;2023-03-01T12:37:45;23.23;30.34
41142;SHT31;63666;52.284;20.890;2023-03-01T12:40:43;23.23;30.31
41142;SHT31;63666;52.284;20.890;2023-03-01T12:43:44;23.30;30.28
41142;SHT31;63666;52.284;20.890;2023-03-01T12:46:32;23.34;30.32
41142;SHT31;63666;52.284;20.890;2023-03-01T12:49:15;23.36;30.18
41142;SHT31;63666;52.284;20.890;2023-03-01T12:51:50;23.27;30.23
41142;SHT31;63666;52.284;20.890;2023-03-01T12:54:31;23.21;30.39
41142;SHT31;63666;52.284;20.890;2023-03-01T12:57:09;23.17;30.70
41142;SHT31;63666;52.284;20.890;2023-03-01T12:59:57;23.21;30.44
41142;SHT31;63666;52.284;20.890;2023-03-01T13:02:39;23.21;30.42
41142;SHT31;63666;52.284;20.890;2023-03-01T13:05:29;23.21;30.49
41142;SHT31;63666;52.284;20.890;2023-03-01T13:08:15;23.30;30.50
41142;SHT31;63666;52.284;20.890;2023-03-01T13:10:52;23.33;30.41
41142;SHT31;63666;52.284;20.890;2023-03-01T13:13:29;23.29;30.54
41142;SHT31;63666;52.284;20.890;2023-03-01T13:19:13;23.38;30.46
41142;SHT31;63666;52.284;20.890;2023-03-01T13:21:49;23.42;30.31
41142;SHT31;63666;52.284;20.890;2023-03-01T13:24:33;23.40;30.30
41142;SHT31;63666;52.284;20.890;2023-03-01T13:27:21;23.40;30.37
41142;SHT31;63666;52.284;20.890;2023-03-01T13:29:55;23.47;30.47
41142;SHT31;63666;52.284;20.890;2023-03-01T13:32:33;23.20;30.51
41142;SHT31;63666;52.284;20.890;2023-03-01T13:41:15;23.03;30.91
41142;SHT31;63666;52.284;20.890;2023-03-01T13:44:12;23.09;31.16
41142;SHT31;63666;52.284;20.890;2023-03-01T13:46:51;23.13;30.87
41142;SHT31;63666;52.284;20.890;2023-03-01T13:49:31;23.11;30.84
41142;SHT31;63666;52.284;20.890;2023-03-01T13:52:28;23.26;30.68
41142;SHT31;63666;52.284;20.890;2023-03-01T13:55:16;23.35;30.86
41142;SHT31;63666;52.284;20.890;2023-03-01T13:57:53;23.33;30.72
41142;SHT31;63666;52.284;20.890;2023-03-01T14:00:36;23.43;30.64
41142;SHT31;63666;52.284;20.890;2023-03-01T14:03:12;23.46;30.60
41142;SHT31;63666;52.284;20.890;2023-03-01T14:05:58;23.44;30.66
41142;SHT31;63666;52.284;20.890;2023-03-01T14:08:42;23.36;30.76
41142;SHT31;63666;52.284;20.890;2023-03-01T14:11:28;23.15;30.94
41142;SHT31;63666;52.284;20.890;2023-03-01T14:14:31;23.32;31.16
41142;SHT31;63666;52.284;20.890;2023-03-01T14:20:32;23.40;30.95
41142;SHT31;63666;52.284;20.890;2023-03-01T14:23:11;23.35;30.89
41142;SHT31;63666;52.284;20.890;2023-03-01T14:25:49;23.30;30.99
41142;SHT31;63666;52.284;20.890;2023-03-01T14:28:27;23.26;31.04
41142;SHT31;63666;52.284;20.890;2023-03-01T14:31:00;23.24;31.14
41142;SHT31;63666;52.284;20.890;2023-03-01T14:33:35;23.12;31.34
41142;SHT31;63666;52.284;20.890;2023-03-01T14:36:10;22.98;31.46
41142;SHT31;63666;52.284;20.890;2023-03-01T14:38:45;22.84;31.79
41142;SHT31;63666;52.284;20.890;2023-03-01T14:41:20;22.82;31.69
41142;SHT31;63666;52.284;20.890;2023-03-01T14:43:53;22.73;31.85
41142;SHT31;63666;52.284;20.890;2023-03-01T14:46:30;22.70;31.90
41142;SHT31;63666;52.284;20.890;2023-03-01T14:49:05;22.72;31.75
41142;SHT31;63666;52.284;20.890;2023-03-01T14:51:49;22.64;32.07
41142;SHT31;63666;52.284;20.890;2023-03-01T14:54:24;22.53;32.34
41142;SHT31;63666;52.284;20.890;2023-03-01T14:57:00;22.48;32.23
41142;SHT31;63666;52.284;20.890;2023-03-01T14:59:32;22.41;32.36
41142;SHT31;63666;52.284;20.890;2023-03-01T15:02:02;22.36;32.43
41142;SHT31;63666;52.284;20.890;2023-03-01T15:04:36;22.34;32.52
41142;SHT31;63666;52.284;20.890;2023-03-01T15:07:09;22.28;32.65
41142;SHT31;63666;52.284;20.890;2023-03-01T15:09:43;22.22;32.91
41142;SHT31;63666;52.284;20.890;2023-03-01T15:18:14;22.11;33.63
41142;SHT31;63666;52.284;20.890;2023-03-01T15:20:48;22.10;33.62
41142;SHT31;63666;52.284;20.890;2023-03-01T15:23:23;22.10;33.57
41142;SHT31;63666;52.284;20.890;2023-03-01T15:25:58;22.08;33.37
41142;SHT31;63666;52.284;20.890;2023-03-01T15:28:31;22.04;33.44
41142;SHT31;63666;52.284;20.890;2023-03-01T15:31:07;22.01;33.51
41142;SHT31;63666;52.284;20.890;2023-03-01T15:33:48;21.98;33.56
41142;SHT31;63666;52.284;20.890;2023-03-01T15:36:31;21.94;33.44
41142;SHT31;63666;52.284;20.890;2023-03-01T15:42:10;21.86;33.50
41142;SHT31;63666;52.284;20.890;2023-03-01T15:45:09;21.86;33.55
41142;SHT31;63666;52.284;20.890;2023-03-01T15:47:41;21.83;33.63
41142;SHT31;63666;52.284;20.890;2023-03-01T15:50:22;21.83;33.47
41142;SHT31;63666;52.284;20.890;2023-03-01T15:52:57;21.84;33.33
41142;SHT31;63666;52.284;20.890;2023-03-01T15:55:34;21.86;33.29
41142;SHT31;63666;52.284;20.890;2023-03-01T15:58:10;21.83;34.10
41142;SHT31;63666;52.284;20.890;2023-03-01T16:00:44;21.83;34.20
41142;SHT31;63666;52.284;20.890;2023-03-01T16:03:28;21.86;34.38
41142;SHT31;63666;52.284;20.890;2023-03-01T16:05:59;21.99;33.53
41142;SHT31;63666;52.284;20.890;2023-03-01T16:08:30;22.08;33.49
41142;SHT31;63666;52.284;20.890;2023-03-01T16:11:04;22.11;33.77
41142;SHT31;63666;52.284;20.890;2023-03-01T16:13:42;22.12;33.79
41142;SHT31;63666;52.284;20.890;2023-03-01T16:16:14;22.14;34.50
41142;SHT31;63666;52.284;20.890;2023-03-01T16:18:51;22.04;35.53
41142;SHT31;63666;52.284;20.890;2023-03-01T16:21:24;22.10;34.67
41142;SHT31;63666;52.284;20.890;2023-03-01T16:24:00;22.24;33.83
41142;SHT31;63666;52.284;20.890;2023-03-01T16:26:31;22.28;33.80
41142;SHT31;63666;52.284;20.890;2023-03-01T16:29:06;22.31;33.75
41142;SHT31;63666;52.284;20.890;2023-03-01T16:31:36;22.28;34.47
41142;SHT31;63666;52.284;20.890;2023-03-01T16:34:11;22.15;34.95
41142;SHT31;63666;52.284;20.890;2023-03-01T16:36:43;22.16;34.29
41142;SHT31;63666;52.284;20.890;2023-03-01T16:39:17;22.29;33.59
41142;SHT31;63666;52.284;20.890;2023-03-01T16:41:53;22.27;33.71
41142;SHT31;63666;52.284;20.890;2023-03-01T16:44:23;22.28;33.47
41142;SHT31;63666;52.284;20.890;2023-03-01T16:46:54;22.27;33.35
41142;SHT31;63666;52.284;20.890;2023-03-01T16:49:25;22.26;33.33
41142;SHT31;63666;52.284;20.890;2023-03-01T16:51:58;22.12;34.04